sensor_id;sensor_type;location;lat;lon;timestamp;pressure;altitude;pressure_sealevel;temperature;humidity
46111;BME280;31849;55.992;37.252;2023-03-03T00:00:17;97649.53;;;0.99;59.14
46111;BME280;31849;55.992;37.252;2023-03-03T00:05:21;97651.34;;;1.15;58.75
46111;BME280;31849;55.992;37.252;2023-03-03T00:10:26;97637.69;;;1.16;59.00
46111;BME280;31849;55.992;37.252;2023-03-03T00:15:30;97641.97;;;1.16;59.03
46111;BME280;31849;55.992;37.252;2023-03-03T00:20:35;97622.31;;;1.13;59.56
46111;BME280;31849;55.992;37.252;2023-03-03T00:25:42;97627.47;;;1.16;59.52
46111;BME280;31849;55.992;37.252;2023-03-03T00:30:46;97615.56;;;1.28;59.32
46111;BME280;31849;55.992;37.252;2023-03-03T00:35:49;97613.03;;;1.31;59.16
46111;BME280;31849;55.992;37.252;2023-03-03T00:40:54;97601.94;;;1.35;59.54
46111;BME280;31849;55.992;37.252;2023-03-03T00:45:58;97595.03;;;1.18;59.90
46111;BME280;31849;55.992;37.252;2023-03-03T00:51:22;97589.13;;;1.36;59.50
46111;BME280;31849;55.992;37.252;2023-03-03T00:56:29;97577.22;;;1.38;59.77
46111;BME280;31849;55.992;37.252;2023-03-03T01:01:32;97579.81;;;1.58;59.57
46111;BME280;31849;55.992;37.252;2023-03-03T01:06:36;97579.81;;;1.51;59.61
46111;BME280;31849;55.992;37.252;2023-03-03T01:11:40;97585.00;;;1.69;59.01
46111;BME280;31849;55.992;37.252;2023-03-03T01:16:44;97584.09;;;1.53;59.82
46111;BME280;31849;55.992;37.252;2023-03-03T01:21:47;97574.66;;;1.43;60.00
46111;BME280;31849;55.992;37.252;2023-03-03T01:26:52;97577.13;;;1.23;60.99
46111;BME280;31849;55.992;37.252;2023-03-03T01:31:55;97573.84;;;1.53;60.73
46111;BME280;31849;55.992;37.252;2023-03-03T01:36:59;97568.66;;;1.38;60.52
46111;BME280;31849;55.992;37.252;2023-03-03T01:42:04;97567.91;;;1.57;60.06
46111;BME280;31849;55.992;37.252;2023-03-03T01:47:10;97558.50;;;1.56;60.40
46111;BME280;31849;55.992;37.252;2023-03-03T01:52:21;97542.28;;;1.70;59.90
46111;BME280;31849;55.992;37.252;2023-03-03T01:57:32;97536.28;;;1.62;59.93
46111;BME280;31849;55.992;37.252;2023-03-03T02:02:38;97533.69;;;1.48;60.51
46111;BME280;31849;55.992;37.252;2023-03-03T02:07:42;97526.91;;;1.62;60.21
46111;BME280;31849;55.992;37.252;2023-03-03T02:12:50;97518.34;;;1.51;60.27
46111;BME280;31849;55.992;37.252;2023-03-03T02:17:56;97525.16;;;1.46;60.86
46111;BME280;31849;55.992;37.252;2023-03-03T02:23:04;97515.78;;;1.57;60.37
46111;BME280;31849;55.992;37.252;2023-03-03T02:28:11;97512.38;;;1.44;61.24
46111;BME280;31849;55.992;37.252;2023-03-03T02:33:14;97509.81;;;1.66;60.44
46111;BME280;31849;55.992;37.252;2023-03-03T02:38:21;97496.13;;;1.45;61.72
46111;BME280;31849;55.992;37.252;2023-03-03T02:43:32;97489.28;;;1.35;61.72
46111;BME280;31849;55.992;37.252;2023-03-03T02:48:37;97484.19;;;1.46;61.81
46111;BME280;31849;55.992;37.252;2023-03-03T02:53:41;97494.44;;;1.49;61.23
46111;BME280;31849;55.992;37.252;2023-03-03T02:58:45;97501.31;;;1.70;60.60
46111;BME280;31849;55.992;37.252;2023-03-03T03:03:49;97487.63;;;1.65;60.52
46111;BME280;31849;55.992;37.252;2023-03-03T03:08:52;97488.50;;;1.68;60.35
46111;BME280;31849;55.992;37.252;2023-03-03T03:13:57;97485.94;;;1.67;60.44
46111;BME280;31849;55.992;37.252;2023-03-03T03:19:02;97480.81;;;1.68;60.71
46111;BME280;31849;55.992;37.252;2023-03-03T03:24:06;97485.09;;;1.75;60.64
46111;BME280;31849;55.992;37.252;2023-03-03T03:29:11;97472.28;;;1.77;61.15
46111;BME280;31849;55.992;37.252;2023-03-03T03:34:14;97477.41;;;1.69;60.69
46111;BME280;31849;55.992;37.252;2023-03-03T03:39:18;97465.44;;;1.65;60.89
46111;BME280;31849;55.992;37.252;2023-03-03T03:44:23;97464.56;;;1.66;61.28
46111;BME280;31849;55.992;37.252;2023-03-03T03:49:27;97451.75;;;1.66;61.60
46111;BME280;31849;55.992;37.252;2023-03-03T03:54:30;97459.44;;;1.63;61.75
46111;BME280;31849;55.992;37.252;2023-03-03T03:59:35;97444.94;;;1.56;61.27
46111;BME280;31849;55.992;37.252;2023-03-03T04:04:39;97451.78;;;1.71;60.95
46111;BME280;31849;55.992;37.252;2023-03-03T04:09:43;97450.91;;;1.75;61.21
46111;BME280;31849;55.992;37.252;2023-03-03T04:14:48;97436.38;;;1.63;61.93
46111;BME280;31849;55.992;37.252;2023-03-03T04:19:51;97438.94;;;1.55;62.78
46111;BME280;31849;55.992;37.252;2023-03-03T04:24:55;97432.13;;;1.67;61.35
46111;BME280;31849;55.992;37.252;2023-03-03T04:30:00;97438.09;;;1.72;61.62
46111;BME280;31849;55.992;37.252;2023-03-03T04:35:06;97438.97;;;1.71;61.47
46111;BME280;31849;55.992;37.252;2023-03-03T04:40:10;97438.97;;;1.75;61.33
46111;BME280;31849;55.992;37.252;2023-03-03T04:45:15;97438.97;;;1.72;61.58
46111;BME280;31849;55.992;37.252;2023-03-03T04:50:18;97438.97;;;1.80;62.08
46111;BME280;31849;55.992;37.252;2023-03-03T04:55:22;97439.78;;;1.90;60.93
46111;BME280;31849;55.992;37.252;2023-03-03T05:00:27;97448.34;;;1.80;61.56
46111;BME280;31849;55.992;37.252;2023-03-03T05:05:30;97451.78;;;1.85;61.33
46111;BME280;31849;55.992;37.252;2023-03-03T05:10:33;97447.50;;;1.87;61.57
46111;BME280;31849;55.992;37.252;2023-03-03T05:15:39;97454.31;;;2.05;60.61
46111;BME280;31849;55.992;37.252;2023-03-03T05:20:44;97457.75;;;1.88;60.61
46111;BME280;31849;55.992;37.252;2023-03-03T05:25:48;97455.19;;;1.62;61.77
46111;BME280;31849;55.992;37.252;2023-03-03T05:30:53;97454.34;;;1.72;61.00
46111;BME280;31849;55.992;37.252;2023-03-03T05:35:57;97467.16;;;1.68;61.44
46111;BME280;31849;55.992;37.252;2023-03-03T05:41:00;97467.16;;;1.75;61.19
46111;BME280;31849;55.992;37.252;2023-03-03T05:46:06;97462.00;;;1.99;60.36
46111;BME280;31849;55.992;37.252;2023-03-03T05:51:10;97449.19;;;2.02;60.80
46111;BME280;31849;55.992;37.252;2023-03-03T05:56:13;97461.97;;;2.34;59.65
46111;BME280;31849;55.992;37.252;2023-03-03T06:01:18;97465.41;;;2.41;59.32
46111;BME280;31849;55.992;37.252;2023-03-03T06:06:23;97459.38;;;2.53;59.36
46111;BME280;31849;55.992;37.252;2023-03-03T06:11:26;97464.47;;;2.63;59.00
46111;BME280;31849;55.992;37.252;2023-03-03T06:16:31;97481.56;;;2.74;58.66
46111;BME280;31849;55.992;37.252;2023-03-03T06:21:34;97466.19;;;2.54;58.37
46111;BME280;31849;55.992;37.252;2023-03-03T06:26:38;97468.69;;;2.81;58.33
46111;BME280;31849;55.992;37.252;2023-03-03T06:31:43;97471.22;;;2.92;58.19
46111;BME280;31849;55.992;37.252;2023-03-03T06:36:46;97465.13;;;3.20;56.99
46111;BME280;31849;55.992;37.252;2023-03-03T06:41:50;97474.59;;;3.07;57.49
46111;BME280;31849;55.992;37.252;2023-03-03T06:46:55;97480.47;;;3.30;56.46
46111;BME280;31849;55.992;37.252;2023-03-03T06:52:04;97481.19;;;3.52;56.00
46111;BME280;31849;55.992;37.252;2023-03-03T06:57:17;97473.41;;;3.62;56.04
46111;BME280;31849;55.992;37.252;2023-03-03T07:02:24;97478.56;;;3.60;54.87
46111;BME280;31849;55.992;37.252;2023-03-03T07:07:27;97479.47;;;3.53;55.25
46111;BME280;31849;55.992;37.252;2023-03-03T07:12:30;97477.03;;;3.30;55.33
46111;BME280;31849;55.992;37.252;2023-03-03T07:17:37;97478.63;;;3.51;55.19
46111;BME280;31849;55.992;37.252;2023-03-03T07:22:43;97478.66;;;3.48;55.48
46111;BME280;31849;55.992;37.252;2023-03-03T07:27:47;97475.91;;;3.71;54.64
46111;BME280;31849;55.992;37.252;2023-03-03T07:32:53;97478.41;;;3.86;54.24
46111;BME280;31849;55.992;37.252;2023-03-03T07:37:58;97487.19;;;3.51;54.70
46111;BME280;31849;55.992;37.252;2023-03-03T07:43:22;97480.97;;;3.85;54.59
46111;BME280;31849;55.992;37.252;2023-03-03T07:48:34;97493.72;;;3.97;54.34
46111;BME280;31849;55.992;37.252;2023-03-03T07:53:39;97492.97;;;3.83;53.56
46111;BME280;31849;55.992;37.252;2023-03-03T07:58:43;97489.41;;;4.05;53.46
46111;BME280;31849;55.992;37.252;2023-03-03T08:03:49;97499.59;;;4.15;53.34
46111;BME280;31849;55.992;37.252;2023-03-03T08:08:53;97493.50;;;4.27;53.19
46111;BME280;31849;55.992;37.252;2023-03-03T08:13:57;97505.72;;;3.98;53.58
46111;BME280;31849;55.992;37.252;2023-03-03T08:19:04;97500.31;;;4.32;52.58
46111;BME280;31849;55.992;37.252;2023-03-03T08:24:07;97506.19;;;4.45;52.59
46111;BME280;31849;55.992;37.252;2023-03-03T08:29:11;97500.78;;;4.71;52.83
46111;BME280;31849;55.992;37.252;2023-03-03T08:34:16;97507.34;;;5.02;51.64
46111;BME280;31849;55.992;37.252;2023-03-03T08:39:19;97501.84;;;5.28;51.54
46111;BME280;31849;55.992;37.252;2023-03-03T08:44:23;97509.75;;;5.14;51.58
46111;BME280;31849;55.992;37.252;2023-03-03T08:49:29;97501.69;;;5.39;51.03
46111;BME280;31849;55.992;37.252;2023-03-03T08:54:34;97517.47;;;5.16;50.94
46111;BME280;31849;55.992;37.252;2023-03-03T08:59:37;97513.47;;;5.60;50.64
46111;BME280;31849;55.992;37.252;2023-03-03T09:04:42;97515.66;;;6.42;49.00
46111;BME280;31849;55.992;37.252;2023-03-03T09:09:45;97515.50;;;7.00;48.09
46111;BME280;31849;55.992;37.252;2023-03-03T09:14:49;97511.06;;;7.05;47.99
46111;BME280;31849;55.992;37.252;2023-03-03T09:19:57;97509.81;;;7.26;47.84
46111;BME280;31849;55.992;37.252;2023-03-03T09:25:02;97513.81;;;6.97;48.61
46111;BME280;31849;55.992;37.252;2023-03-03T09:30:33;97517.53;;;6.82;48.26
46111;BME280;31849;55.992;37.252;2023-03-03T09:35:39;97516.06;;;6.69;49.01
46111;BME280;31849;55.992;37.252;2023-03-03T09:40:54;97518.00;;;6.58;47.89
46111;BME280;31849;55.992;37.252;2023-03-03T09:46:03;97523.63;;;6.30;47.54
46111;BME280;31849;55.992;37.252;2023-03-03T09:51:20;97521.06;;;6.28;47.19
46111;BME280;31849;55.992;37.252;2023-03-03T09:56:30;97516.91;;;6.20;48.13
46111;BME280;31849;55.992;37.252;2023-03-03T10:01:45;97522.38;;;5.98;48.07
46111;BME280;31849;55.992;37.252;2023-03-03T10:06:59;97522.69;;;5.76;48.54
46111;BME280;31849;55.992;37.252;2023-03-03T10:12:14;97512.81;;;5.44;49.98
46111;BME280;31849;55.992;37.252;2023-03-03T10:17:35;97515.66;;;5.22;50.38
46111;BME280;31849;55.992;37.252;2023-03-03T10:22:51;97511.81;;;5.54;49.94
46111;BME280;31849;55.992;37.252;2023-03-03T10:28:09;97507.03;;;5.89;49.17
46111;BME280;31849;55.992;37.252;2023-03-03T10:33:27;97515.53;;;5.98;49.26
46111;BME280;31849;55.992;37.252;2023-03-03T10:38:46;97513.16;;;5.80;49.88
46111;BME280;31849;55.992;37.252;2023-03-03T10:44:16;97502.41;;;6.11;49.10
46111;BME280;31849;55.992;37.252;2023-03-03T10:49:34;97511.91;;;6.10;49.05
46111;BME280;31849;55.992;37.252;2023-03-03T10:55:05;97518.72;;;6.13;49.25
46111;BME280;31849;55.992;37.252;2023-03-03T11:00:20;97520.81;;;5.86;49.79
46111;BME280;31849;55.992;37.252;2023-03-03T11:05:32;97521.53;;;5.96;49.77
46111;BME280;31849;55.992;37.252;2023-03-03T11:10:50;97537.53;;;6.73;47.93
46111;BME280;31849;55.992;37.252;2023-03-03T11:16:25;97524.25;;;7.36;47.08
46111;BME280;31849;55.992;37.252;2023-03-03T11:21:37;97521.81;;;7.69;45.64
46111;BME280;31849;55.992;37.252;2023-03-03T11:26:59;97526.47;;;8.30;44.62
46111;BME280;31849;55.992;37.252;2023-03-03T11:32:18;97516.81;;;8.71;43.93
46111;BME280;31849;55.992;37.252;2023-03-03T11:37:28;97532.72;;;8.21;43.45
46111;BME280;31849;55.992;37.252;2023-03-03T11:42:47;97535.31;;;7.43;44.83
46111;BME280;31849;55.992;37.252;2023-03-03T11:47:58;97529.91;;;7.54;44.77
46111;BME280;31849;55.992;37.252;2023-03-03T11:53:21;97531.56;;;7.16;45.15
46111;BME280;31849;55.992;37.252;2023-03-03T11:58:32;97532.28;;;6.26;47.20
46111;BME280;31849;55.992;37.252;2023-03-03T12:03:40;97530.13;;;5.98;46.99
46111;BME280;31849;55.992;37.252;2023-03-03T12:09:02;97538.19;;;5.75;47.20
46111;BME280;31849;55.992;37.252;2023-03-03T12:14:21;97539.56;;;5.35;47.93
46111;BME280;31849;55.992;37.252;2023-03-03T12:19:34;97532.09;;;5.12;47.95
46111;BME280;31849;55.992;37.252;2023-03-03T12:30:21;97533.25;;;4.85;48.64
46111;BME280;31849;55.992;37.252;2023-03-03T12:35:29;97525.31;;;5.05;48.45
46111;BME280;31849;55.992;37.252;2023-03-03T12:40:45;97533.41;;;4.72;49.44
46111;BME280;31849;55.992;37.252;2023-03-03T12:46:00;97535.97;;;4.71;49.05
46111;BME280;31849;55.992;37.252;2023-03-03T12:51:16;97528.19;;;4.77;49.14
46111;BME280;31849;55.992;37.252;2023-03-03T12:56:25;97534.16;;;4.81;48.51
46111;BME280;31849;55.992;37.252;2023-03-03T13:01:51;97534.13;;;4.82;48.34
46111;BME280;31849;55.992;37.252;2023-03-03T13:07:00;97534.13;;;4.84;49.34
46111;BME280;31849;55.992;37.252;2023-03-03T13:12:29;97543.72;;;4.71;49.16
46111;BME280;31849;55.992;37.252;2023-03-03T13:17:39;97537.81;;;4.56;49.21
46111;BME280;31849;55.992;37.252;2023-03-03T13:22:56;97536.72;;;4.81;49.30
46111;BME280;31849;55.992;37.252;2023-03-03T13:28:09;97532.41;;;4.86;49.12
46111;BME280;31849;55.992;37.252;2023-03-03T13:33:24;97537.16;;;5.21;49.24
46111;BME280;31849;55.992;37.252;2023-03-03T13:38:30;97526.97;;;5.10;48.61
46111;BME280;31849;55.992;37.252;2023-03-03T13:43:42;97522.78;;;5.00;48.53
46111;BME280;31849;55.992;37.252;2023-03-03T13:49:02;97524.94;;;4.58;48.95
46111;BME280;31849;55.992;37.252;2023-03-03T13:54:17;97528.00;;;4.04;50.38
46111;BME280;31849;55.992;37.252;2023-03-03T13:59:34;97524.75;;;3.69;50.48
46111;BME280;31849;55.992;37.252;2023-03-03T14:04:51;97528.34;;;3.45;50.77
46111;BME280;31849;55.992;37.252;2023-03-03T14:10:01;97531.00;;;3.28;51.57
46111;BME280;31849;55.992;37.252;2023-03-03T14:15:17;97525.03;;;3.19;51.24
46111;BME280;31849;55.992;37.252;2023-03-03T14:20:27;97532.75;;;3.19;51.67
46111;BME280;31849;55.992;37.252;2023-03-03T14:25:53;97526.78;;;3.04;51.87
46111;BME280;31849;55.992;37.252;2023-03-03T14:30:57;97526.84;;;2.93;52.19
46111;BME280;31849;55.992;37.252;2023-03-03T14:36:13;97532.81;;;2.95;52.08
46111;BME280;31849;55.992;37.252;2023-03-03T14:41:21;97537.94;;;3.05;52.38
46111;BME280;31849;55.992;37.252;2023-03-03T14:46:37;97532.78;;;3.08;51.86
46111;BME280;31849;55.992;37.252;2023-03-03T14:51:44;97532.75;;;3.19;51.66
46111;BME280;31849;55.992;37.252;2023-03-03T14:56:59;97534.41;;;3.30;51.69
46111;BME280;31849;55.992;37.252;2023-03-03T15:02:27;97544.66;;;3.37;51.79
46111;BME280;31849;55.992;37.252;2023-03-03T15:07:35;97548.97;;;3.27;51.94
46111;BME280;31849;55.992;37.252;2023-03-03T15:12:40;97549.00;;;3.14;51.97
46111;BME280;31849;55.992;37.252;2023-03-03T15:17:54;97560.97;;;3.23;51.25
46111;BME280;31849;55.992;37.252;2023-03-03T15:23:04;97566.09;;;3.28;50.71
46111;BME280;31849;55.992;37.252;2023-03-03T15:28:23;97572.13;;;3.16;50.99
46111;BME280;31849;55.992;37.252;2023-03-03T15:33:34;97561.03;;;3.06;51.57
46111;BME280;31849;55.992;37.252;2023-03-03T15:38:49;97569.63;;;2.94;52.41
46111;BME280;31849;55.992;37.252;2023-03-03T15:44:04;97568.78;;;2.98;51.64
46111;BME280;31849;55.992;37.252;2023-03-03T15:49:19;97564.50;;;2.94;51.71
46111;BME280;31849;55.992;37.252;2023-03-03T15:54:38;97549.94;;;2.96;52.43
46111;BME280;31849;55.992;37.252;2023-03-03T16:00:02;97567.03;;;3.07;51.62
46111;BME280;31849;55.992;37.252;2023-03-03T16:05:14;97573.91;;;2.97;51.97
46111;BME280;31849;55.992;37.252;2023-03-03T16:10:23;97570.47;;;2.90;52.14
46111;BME280;31849;55.992;37.252;2023-03-03T16:15:45;97573.91;;;2.81;52.29
46111;BME280;31849;55.992;37.252;2023-03-03T16:21:04;97567.06;;;2.80;52.49
46111;BME280;31849;55.992;37.252;2023-03-03T16:26:21;97567.94;;;2.78;52.44
46111;BME280;31849;55.992;37.252;2023-03-03T16:31:33;97565.38;;;2.66;52.67
46111;BME280;31849;55.992;37.252;2023-03-03T16:36:51;97568.84;;;2.64;53.68
46111;BME280;31849;55.992;37.252;2023-03-03T16:42:00;97562.81;;;2.75;52.54
46111;BME280;31849;55.992;37.252;2023-03-03T16:47:21;97559.41;;;2.63;52.80
46111;BME280;31849;55.992;37.252;2023-03-03T16:52:35;97561.97;;;2.70;52.53
46111;BME280;31849;55.992;37.252;2023-03-03T16:57:49;97560.25;;;2.67;53.01
46111;BME280;31849;55.992;37.252;2023-03-03T17:08:52;97551.75;;;2.48;52.87
46111;BME280;31849;55.992;37.252;2023-03-03T17:14:18;97548.31;;;2.49;53.02
46111;BME280;31849;55.992;37.252;2023-03-03T17:19:35;97556.84;;;2.42;53.34
46111;BME280;31849;55.992;37.252;2023-03-03T17:24:57;97569.69;;;2.54;52.95
46111;BME280;31849;55.992;37.252;2023-03-03T17:30:11;97570.53;;;2.55;52.66
46111;BME280;31849;55.992;37.252;2023-03-03T17:35:27;97570.53;;;2.66;53.04
46111;BME280;31849;55.992;37.252;2023-03-03T17:40:45;97573.97;;;2.46;52.98
46111;BME280;31849;55.992;37.252;2023-03-03T17:45:54;97559.44;;;2.45;52.99
46111;BME280;31849;55.992;37.252;2023-03-03T17:56:32;97561.16;;;2.40;53.19
46111;BME280;31849;55.992;37.252;2023-03-03T18:02:00;97572.25;;;2.40;53.19
46111;BME280;31849;55.992;37.252;2023-03-03T18:07:27;97567.13;;;2.22;53.46
46111;BME280;31849;55.992;37.252;2023-03-03T18:12:38;97567.97;;;2.11;53.69
46111;BME280;31849;55.992;37.252;2023-03-03T18:18:03;97565.41;;;2.10;53.62
46111;BME280;31849;55.992;37.252;2023-03-03T18:23:27;97561.13;;;1.90;54.45
46111;BME280;31849;55.992;37.252;2023-03-03T18:28:52;97566.25;;;2.01;53.86
46111;BME280;31849;55.992;37.252;2023-03-03T18:34:25;97562.00;;;2.06;54.06
46111;BME280;31849;55.992;37.252;2023-03-03T18:39:43;97555.16;;;2.04;53.87
46111;BME280;31849;55.992;37.252;2023-03-03T18:44:48;97558.50;;;1.66;54.35
46111;BME280;31849;55.992;37.252;2023-03-03T18:50:04;97555.84;;;1.39;55.27
46111;BME280;31849;55.992;37.252;2023-03-03T18:55:25;97554.94;;;1.16;55.22
46111;BME280;31849;55.992;37.252;2023-03-03T19:00:29;97549.69;;;0.93;55.19
46111;BME280;31849;55.992;37.252;2023-03-03T19:05:36;97554.78;;;0.82;55.45
46111;BME280;31849;55.992;37.252;2023-03-03T19:10:51;97562.28;;;0.59;56.01
46111;BME280;31849;55.992;37.252;2023-03-03T19:15:57;97550.22;;;0.38;56.19
46111;BME280;31849;55.992;37.252;2023-03-03T19:21:05;97556.97;;;0.29;56.30
46111;BME280;31849;55.992;37.252;2023-03-03T19:26:32;97555.19;;;0.21;56.68
46111;BME280;31849;55.992;37.252;2023-03-03T19:31:43;97559.38;;;0.11;56.58
46111;BME280;31849;55.992;37.252;2023-03-03T19:37:02;97551.44;;;-0.20;57.86
46111;BME280;31849;55.992;37.252;2023-03-03T19:42:16;97565.09;;;-0.15;56.76
46111;BME280;31849;55.992;37.252;2023-03-03T19:47:31;97562.47;;;-0.23;57.38
46111;BME280;31849;55.992;37.252;2023-03-03T19:52:41;97560.66;;;-0.33;57.58
46111;BME280;31849;55.992;37.252;2023-03-03T19:57:54;97559.09;;;-0.22;57.27
46111;BME280;31849;55.992;37.252;2023-03-03T20:03:21;97554.03;;;-0.14;57.42
46111;BME280;31849;55.992;37.252;2023-03-03T20:08:32;97543.78;;;-0.17;57.20
46111;BME280;31849;55.992;37.252;2023-03-03T20:13:49;97533.59;;;-0.14;57.19
46111;BME280;31849;55.992;37.252;2023-03-03T20:24:36;97528.66;;;0.05;57.09
46111;BME280;31849;55.992;37.252;2023-03-03T20:29:53;97523.72;;;0.26;56.81
46111;BME280;31849;55.992;37.252;2023-03-03T20:35:09;97515.28;;;0.40;56.36
46111;BME280;31849;55.992;37.252;2023-03-03T20:40:24;97517.06;;;0.51;56.45
46111;BME280;31849;55.992;37.252;2023-03-03T20:45:36;97517.19;;;0.68;55.62
46111;BME280;31849;55.992;37.252;2023-03-03T20:50:50;97505.16;;;0.57;56.28
46111;BME280;31849;55.992;37.252;2023-03-03T20:56:02;97512.84;;;0.55;56.23
46111;BME280;31849;55.992;37.252;2023-03-03T21:01:08;97513.59;;;0.40;56.25
46111;BME280;31849;55.992;37.252;2023-03-03T21:06:17;97508.53;;;0.51;56.14
46111;BME280;31849;55.992;37.252;2023-03-03T21:11:38;97505.09;;;0.49;56.25
46111;BME280;31849;55.992;37.252;2023-03-03T21:16:42;97499.94;;;0.40;56.31
46111;BME280;31849;55.992;37.252;2023-03-03T21:21:47;97488.88;;;0.39;56.54
46111;BME280;31849;55.992;37.252;2023-03-03T21:26:54;97492.31;;;0.50;56.25
46111;BME280;31849;55.992;37.252;2023-03-03T21:31:59;97488.84;;;0.36;56.51
46111;BME280;31849;55.992;37.252;2023-03-03T21:37:04;97486.28;;;0.36;56.41
46111;BME280;31849;55.992;37.252;2023-03-03T21:42:11;97482.94;;;0.45;56.37
46111;BME280;31849;55.992;37.252;2023-03-03T21:47:17;97474.41;;;0.47;56.29
46111;BME280;31849;55.992;37.252;2023-03-03T21:52:21;97466.84;;;0.67;55.98
46111;BME280;31849;55.992;37.252;2023-03-03T21:57:26;97457.47;;;0.65;56.15
46111;BME280;31849;55.992;37.252;2023-03-03T22:02:30;97451.47;;;0.55;56.48
46111;BME280;31849;55.992;37.252;2023-03-03T22:07:33;97456.59;;;0.61;56.36
46111;BME280;31849;55.992;37.252;2023-03-03T22:12:38;97452.28;;;0.51;56.23
46111;BME280;31849;55.992;37.252;2023-03-03T22:17:42;97453.94;;;0.44;56.38
46111;BME280;31849;55.992;37.252;2023-03-03T22:22:46;97447.13;;;0.40;56.64
46111;BME280;31849;55.992;37.252;2023-03-03T22:27:51;97450.53;;;0.39;56.59
46111;BME280;31849;55.992;37.252;2023-03-03T22:32:54;97442.75;;;0.24;57.24
46111;BME280;31849;55.992;37.252;2023-03-03T22:37:58;97439.13;;;-0.09;57.51
46111;BME280;31849;55.992;37.252;2023-03-03T22:43:04;97435.72;;;-0.08;57.76
46111;BME280;31849;55.992;37.252;2023-03-03T22:48:08;97435.69;;;-0.16;57.39
46111;BME280;31849;55.992;37.252;2023-03-03T22:53:12;97439.25;;;0.09;56.91
46111;BME280;31849;55.992;37.252;2023-03-03T22:58:17;97440.16;;;0.21;56.94
46111;BME280;31849;55.992;37.252;2023-03-03T23:03:21;97435.78;;;0.03;57.46
46111;BME280;31849;55.992;37.252;2023-03-03T23:08:25;97423.81;;;-0.06;57.56
46111;BME280;31849;55.992;37.252;2023-03-03T23:13:30;97431.41;;;-0.15;58.00
46111;BME280;31849;55.992;37.252;2023-03-03T23:18:34;97427.22;;;-0.10;57.81
46111;BME280;31849;55.992;37.252;2023-03-03T23:23:37;97421.97;;;-0.24;57.56
46111;BME280;31849;55.992;37.252;2023-03-03T23:28:42;97416.84;;;-0.29;57.95
46111;BME280;31849;55.992;37.252;2023-03-03T23:33:46;97414.38;;;-0.15;57.59
46111;BME280;31849;55.992;37.252;2023-03-03T23:38:49;97409.22;;;-0.23;57.97
46111;BME280;31849;55.992;37.252;2023-03-03T23:43:54;97407.44;;;-0.31;57.93
46111;BME280;31849;55.992;37.252;2023-03-03T23:48:57;97392.06;;;-0.41;58.10
46111;BME280;31849;55.992;37.252;2023-03-03T23:54:03;97395.34;;;-0.57;57.84
46111;BME280;31849;55.992;37.252;2023-03-03T23:59:08;97384.25;;;-0.64;58.51
